createdAt,value
2019-03-29T00:00:03.498Z,8
2019-03-29T00:01:02.349Z,9
2019-03-29T00:02:01.532Z,8
2019-03-29T00:03:01.791Z,8
2019-03-29T00:04:01.949Z,7
2019-03-29T00:05:02.211Z,5
2019-03-29T00:06:01.479Z,9
2019-03-29T00:07:01.679Z,8
2019-03-29T00:08:01.950Z,8
2019-03-29T00:09:02.326Z,8
2019-03-29T00:10:02.303Z,7
2019-03-29T00:11:01.516Z,7
2019-03-29T00:12:01.709Z,8
2019-03-29T00:13:01.973Z,7
2019-03-29T00:14:02.230Z,5
2019-03-29T00:15:02.455Z,8
2019-03-29T00:16:01.658Z,8
2019-03-29T00:17:01.900Z,6
2019-03-29T00:18:02.219Z,8
2019-03-29T00:19:02.315Z,8
2019-03-29T00:20:01.526Z,6
2019-03-29T00:21:01.697Z,6
2019-03-29T00:22:01.862Z,8
2019-03-29T00:23:02.054Z,8
2019-03-29T00:24:06.865Z,7
2019-03-29T00:25:01.517Z,7
2019-03-29T00:26:01.758Z,7
2019-03-29T00:27:02.061Z,7
2019-03-29T00:28:02.182Z,7
2019-03-29T00:29:03.092Z,8
2019-03-29T00:30:01.594Z,7
2019-03-29T00:31:01.819Z,5
2019-03-29T00:32:02.119Z,7
2019-03-29T00:33:02.383Z,7
2019-03-29T00:34:01.551Z,7
2019-03-29T00:35:01.936Z,8
2019-03-29T00:36:02.184Z,8
2019-03-29T00:37:02.397Z,6
2019-03-29T00:38:01.570Z,7
2019-03-29T00:39:01.773Z,8
2019-03-29T00:40:02.013Z,6
2019-03-29T00:41:02.222Z,8
2019-03-29T00:42:01.553Z,7
2019-03-29T00:43:01.717Z,7
2019-03-29T00:44:01.984Z,6
2019-03-29T00:45:02.300Z,8
2019-03-29T00:46:01.916Z,6
2019-03-29T00:47:02.122Z,8
2019-03-29T00:48:02.390Z,7
2019-03-29T00:49:01.602Z,5
2019-03-29T00:50:01.942Z,7
2019-03-29T00:51:02.108Z,5
2019-03-29T00:52:02.261Z,7
2019-03-29T00:53:01.420Z,7
2019-03-29T00:54:02.052Z,7
2019-03-29T00:55:01.996Z,5
2019-03-29T00:56:02.280Z,6
2019-03-29T00:57:01.459Z,7
2019-03-29T00:58:01.666Z,7
2019-03-29T00:59:01.881Z,7
2019-03-29T01:00:04.097Z,6
2019-03-29T01:01:01.917Z,8
2019-03-29T01:02:02.131Z,5
2019-03-29T01:03:02.279Z,6
2019-03-29T01:04:02.309Z,7
2019-03-29T01:05:01.709Z,8
2019-03-29T01:06:01.836Z,7
2019-03-29T01:07:02.041Z,5
2019-03-29T01:08:08.168Z,6
2019-03-29T01:09:01.448Z,7
2019-03-29T01:10:01.738Z,7
2019-03-29T01:11:01.894Z,8
2019-03-29T01:12:02.083Z,7
2019-03-29T01:13:02.333Z,7
2019-03-29T01:14:01.514Z,8
2019-03-29T01:15:01.785Z,8
2019-03-29T01:16:02.122Z,7
2019-03-29T01:17:02.148Z,7
2019-03-29T01:18:02.431Z,6
2019-03-29T01:19:01.580Z,7
2019-03-29T01:20:01.814Z,7
2019-03-29T01:21:02.085Z,7
2019-03-29T01:22:02.274Z,6
2019-03-29T01:23:01.612Z,8
2019-03-29T01:24:01.872Z,7
2019-03-29T01:25:02.325Z,7
2019-03-29T01:26:01.540Z,6
2019-03-29T01:27:01.813Z,7
2019-03-29T01:28:02.037Z,6
2019-03-29T01:29:02.268Z,7
2019-03-29T01:30:01.551Z,6
2019-03-29T01:31:01.754Z,8
2019-03-29T01:32:01.910Z,7
2019-03-29T01:33:02.155Z,7
2019-03-29T01:34:02.302Z,8
2019-03-29T01:35:01.535Z,7
2019-03-29T01:36:02.067Z,7
2019-03-29T01:37:01.976Z,6
2019-03-29T01:38:02.171Z,7
2019-03-29T01:39:02.370Z,7
2019-03-29T01:40:01.635Z,7
2019-03-29T01:41:01.930Z,8
2019-03-29T01:42:02.073Z,7
2019-03-29T01:43:02.342Z,6
2019-03-29T01:44:02.024Z,6
2019-03-29T01:45:01.908Z,10
2019-03-29T01:46:02.222Z,6
2019-03-29T01:47:03.246Z,6
2019-03-29T01:48:01.676Z,7
2019-03-29T01:49:01.828Z,7
2019-03-29T01:50:02.177Z,7
2019-03-29T01:51:02.292Z,6
2019-03-29T01:52:01.478Z,5
2019-03-29T01:53:01.693Z,6
2019-03-29T01:54:01.909Z,6
2019-03-29T01:55:02.218Z,8
2019-03-29T01:56:02.327Z,7
2019-03-29T01:57:01.548Z,8
2019-03-29T01:58:01.889Z,7
2019-03-29T01:59:02.077Z,8
2019-03-29T02:00:04.620Z,7
2019-03-29T02:01:03.030Z,7
2019-03-29T02:02:01.963Z,7
2019-03-29T02:03:02.165Z,8
2019-03-29T02:04:01.438Z,6
2019-03-29T02:05:01.815Z,8
2019-03-29T02:06:01.976Z,8
2019-03-29T02:07:02.159Z,6
2019-03-29T02:08:01.409Z,5
2019-03-29T02:09:01.671Z,7
2019-03-29T02:10:01.905Z,6
2019-03-29T02:11:02.127Z,7
2019-03-29T02:12:02.308Z,8
2019-03-29T02:13:01.516Z,7
2019-03-29T02:14:01.774Z,7
2019-03-29T02:15:02.015Z,8
2019-03-29T02:16:02.143Z,7
2019-03-29T02:17:02.355Z,6
2019-03-29T02:18:01.551Z,7
2019-03-29T02:19:01.729Z,5
2019-03-29T02:20:01.992Z,6
2019-03-29T02:21:02.258Z,6
2019-03-29T02:22:01.434Z,6
2019-03-29T02:23:01.699Z,7
2019-03-29T02:24:01.880Z,7
2019-03-29T02:25:02.171Z,6
2019-03-29T02:26:02.320Z,6
2019-03-29T02:27:01.626Z,7
2019-03-29T02:28:01.754Z,7
2019-03-29T02:29:01.997Z,8
2019-03-29T02:30:04.366Z,7
2019-03-29T02:31:01.479Z,7
2019-03-29T02:32:01.695Z,6
2019-03-29T02:33:01.909Z,8
2019-03-29T02:34:02.091Z,7
2019-03-29T02:35:02.400Z,6
2019-03-29T02:36:01.579Z,7
2019-03-29T02:37:02.203Z,7
2019-03-29T02:38:01.958Z,6
2019-03-29T02:39:02.181Z,7
2019-03-29T02:40:01.474Z,6
2019-03-29T02:41:01.762Z,6
2019-03-29T02:42:01.986Z,7
2019-03-29T02:43:02.229Z,7
2019-03-29T02:44:01.418Z,6
2019-03-29T02:45:03.310Z,5
2019-03-29T02:46:01.890Z,7
2019-03-29T02:47:02.193Z,8
2019-03-29T02:48:02.373Z,7
2019-03-29T02:49:01.646Z,8
2019-03-29T02:50:01.863Z,7
2019-03-29T02:51:01.995Z,8
2019-03-29T02:52:02.308Z,7
2019-03-29T02:53:01.462Z,7
2019-03-29T02:54:01.714Z,6
2019-03-29T02:55:02.005Z,8
2019-03-29T02:56:02.181Z,8
2019-03-29T02:57:01.434Z,6
2019-03-29T02:58:01.638Z,6
2019-03-29T02:59:01.944Z,6
2019-03-29T03:00:03.417Z,8
2019-03-29T03:01:02.161Z,6
2019-03-29T03:02:02.394Z,8
2019-03-29T03:03:01.603Z,7
2019-03-29T03:04:01.942Z,6
2019-03-29T03:05:02.206Z,8
2019-03-29T03:06:02.378Z,6
2019-03-29T03:07:01.624Z,5
2019-03-29T03:08:01.842Z,7
2019-03-29T03:09:13.045Z,6
2019-03-29T03:10:02.369Z,7
2019-03-29T03:11:01.605Z,6
2019-03-29T03:12:01.755Z,7
2019-03-29T03:13:01.982Z,7
2019-03-29T03:14:02.241Z,7
2019-03-29T03:15:02.523Z,6
2019-03-29T03:16:01.730Z,6
2019-03-29T03:17:01.968Z,6
2019-03-29T03:18:02.277Z,6
2019-03-29T03:19:01.426Z,7
2019-03-29T03:20:02.739Z,6
2019-03-29T03:21:01.459Z,6
2019-03-29T03:22:01.697Z,6
2019-03-29T03:23:01.993Z,6
2019-03-29T03:24:02.161Z,6
2019-03-29T03:25:02.450Z,8
2019-03-29T03:26:01.703Z,5
2019-03-29T03:27:01.935Z,6
2019-03-29T03:28:02.083Z,6
2019-03-29T03:29:02.407Z,7
2019-03-29T03:30:01.670Z,6
2019-03-29T03:31:01.931Z,6
2019-03-29T03:32:02.131Z,6
2019-03-29T03:33:02.343Z,7
2019-03-29T03:34:01.688Z,6
2019-03-29T03:35:01.835Z,6
2019-03-29T03:36:02.071Z,5
2019-03-29T03:37:02.294Z,6
2019-03-29T03:38:01.486Z,6
2019-03-29T03:39:01.681Z,6
2019-03-29T03:40:01.899Z,6
2019-03-29T03:41:02.056Z,6
2019-03-29T03:42:02.332Z,7
2019-03-29T03:43:01.488Z,7
2019-03-29T03:44:01.716Z,5
2019-03-29T03:45:01.986Z,7
2019-03-29T03:46:02.218Z,7
2019-03-29T03:47:01.518Z,6
2019-03-29T03:48:01.764Z,5
2019-03-29T03:49:01.852Z,6
2019-03-29T03:50:02.205Z,6
2019-03-29T03:51:02.369Z,6
2019-03-29T03:52:01.595Z,6
2019-03-29T03:53:01.810Z,6
2019-03-29T03:54:01.903Z,7
2019-03-29T03:55:02.196Z,6
2019-03-29T03:56:02.369Z,5
2019-03-29T03:57:01.589Z,6
2019-03-29T03:58:01.944Z,5
2019-03-29T03:59:02.085Z,6
2019-03-29T04:00:02.391Z,6
2019-03-29T04:01:01.714Z,6
2019-03-29T04:02:01.924Z,6
2019-03-29T04:03:02.104Z,5
2019-03-29T04:04:02.290Z,6
2019-03-29T04:05:01.711Z,5
2019-03-29T04:06:01.856Z,5
2019-03-29T04:07:02.021Z,6
2019-03-29T04:08:02.168Z,6
2019-03-29T04:09:01.445Z,7
2019-03-29T04:10:01.768Z,6
2019-03-29T04:11:01.994Z,7
2019-03-29T04:12:02.164Z,6
2019-03-29T04:13:01.396Z,7
2019-03-29T04:14:01.648Z,3
2019-03-29T04:15:01.885Z,6
2019-03-29T04:16:02.153Z,5
2019-03-29T04:17:02.277Z,6
2019-03-29T04:18:01.511Z,6
2019-03-29T04:19:01.722Z,7
2019-03-29T04:20:02.024Z,7
2019-03-29T04:21:02.341Z,6
2019-03-29T04:22:01.520Z,6
2019-03-29T04:23:01.772Z,5
2019-03-29T04:24:01.950Z,6
2019-03-29T04:25:02.263Z,7
2019-03-29T04:26:02.387Z,6
2019-03-29T04:27:01.559Z,5
2019-03-29T04:28:01.931Z,5
2019-03-29T04:29:04.705Z,5
2019-03-29T04:30:02.423Z,7
2019-03-29T04:31:01.598Z,4
2019-03-29T04:32:01.790Z,5
2019-03-29T04:33:02.065Z,5
2019-03-29T04:34:02.279Z,6
2019-03-29T04:35:01.580Z,6
2019-03-29T04:36:01.766Z,6
2019-03-29T04:37:02.049Z,5
2019-03-29T04:38:02.332Z,5
2019-03-29T04:39:01.454Z,5
2019-03-29T04:40:07.532Z,7
2019-03-29T04:41:01.979Z,6
2019-03-29T04:42:02.234Z,6
2019-03-29T04:43:02.370Z,7
2019-03-29T04:44:01.564Z,5
2019-03-29T04:45:01.884Z,7
2019-03-29T04:46:02.000Z,5
2019-03-29T04:47:02.242Z,5
2019-03-29T04:48:01.439Z,5
2019-03-29T04:49:01.687Z,6
2019-03-29T04:50:01.986Z,6
2019-03-29T04:51:02.091Z,7
2019-03-29T04:52:02.369Z,6
2019-03-29T04:53:01.648Z,6
2019-03-29T04:54:01.869Z,7
2019-03-29T04:55:02.078Z,5
2019-03-29T04:56:02.313Z,6
2019-03-29T04:57:01.447Z,6
2019-03-29T04:58:01.675Z,6
2019-03-29T04:59:01.962Z,6
2019-03-29T05:00:03.989Z,7
2019-03-29T05:01:01.804Z,6
2019-03-29T05:02:02.004Z,6
2019-03-29T05:03:02.238Z,6
2019-03-29T05:04:01.599Z,5
2019-03-29T05:05:01.932Z,5
2019-03-29T05:06:02.142Z,6
2019-03-29T05:07:02.351Z,6
2019-03-29T05:08:01.536Z,4
2019-03-29T05:09:01.852Z,5
2019-03-29T05:10:02.031Z,5
2019-03-29T05:11:02.208Z,6
2019-03-29T05:12:01.440Z,6
2019-03-29T05:13:01.673Z,6
2019-03-29T05:14:01.912Z,5
2019-03-29T05:15:02.193Z,6
2019-03-29T05:16:02.398Z,5
2019-03-29T05:17:01.616Z,5
2019-03-29T05:18:01.956Z,5
2019-03-29T05:19:02.103Z,6
2019-03-29T05:20:02.492Z,5
2019-03-29T05:21:01.610Z,5
2019-03-29T05:22:01.869Z,5
2019-03-29T05:23:02.148Z,6
2019-03-29T05:24:02.357Z,5
2019-03-29T05:25:01.769Z,5
2019-03-29T05:26:01.850Z,5
2019-03-29T05:27:02.078Z,6
2019-03-29T05:28:02.330Z,6
2019-03-29T05:29:01.552Z,5
2019-03-29T05:30:02.269Z,6
2019-03-29T05:31:01.413Z,5
2019-03-29T05:32:01.619Z,5
2019-03-29T05:33:01.833Z,5
2019-03-29T05:34:01.476Z,5
2019-03-29T05:35:01.877Z,5
2019-03-29T05:36:01.986Z,5
2019-03-29T05:37:02.201Z,4
2019-03-29T05:38:02.381Z,3
2019-03-29T05:39:01.587Z,5
2019-03-29T05:40:01.970Z,5
2019-03-29T05:41:02.210Z,5
2019-03-29T05:42:02.357Z,6
2019-03-29T05:43:01.536Z,6
2019-03-29T05:44:01.785Z,4
2019-03-29T05:45:02.023Z,7
2019-03-29T05:46:02.295Z,6
2019-03-29T05:47:01.441Z,5
2019-03-29T05:48:01.646Z,5
2019-03-29T05:49:01.915Z,5
2019-03-29T05:50:02.170Z,5
2019-03-29T05:51:02.369Z,6
2019-03-29T05:52:01.606Z,5
2019-03-29T05:53:01.798Z,6
2019-03-29T05:54:02.096Z,5
2019-03-29T05:55:02.334Z,6
2019-03-29T05:56:01.735Z,6
2019-03-29T05:57:01.678Z,4
2019-03-29T05:58:01.920Z,6
2019-03-29T05:59:02.079Z,5
2019-03-29T06:00:03.211Z,5
2019-03-29T06:01:02.126Z,6
2019-03-29T06:02:02.268Z,4
2019-03-29T06:03:01.501Z,5
2019-03-29T06:04:01.692Z,7
2019-03-29T06:05:02.127Z,4
2019-03-29T06:06:02.393Z,5
2019-03-29T06:07:01.492Z,4
2019-03-29T06:08:01.702Z,5
2019-03-29T06:09:01.923Z,5
2019-03-29T06:10:02.226Z,5
2019-03-29T06:11:02.364Z,5
2019-03-29T06:12:01.620Z,5
2019-03-29T06:13:01.782Z,4
2019-03-29T06:14:01.986Z,5
2019-03-29T06:15:02.231Z,4
2019-03-29T06:16:02.448Z,5
2019-03-29T06:17:01.650Z,5
2019-03-29T06:18:01.840Z,5
2019-03-29T06:19:02.035Z,4
2019-03-29T06:20:02.298Z,5
2019-03-29T06:21:01.474Z,5
2019-03-29T06:22:01.763Z,6
2019-03-29T06:23:01.955Z,6
2019-03-29T06:24:02.135Z,4
2019-03-29T06:25:02.388Z,5
2019-03-29T06:26:01.597Z,6
2019-03-29T06:27:01.867Z,5
2019-03-29T06:28:01.994Z,6
2019-03-29T06:29:02.232Z,5
2019-03-29T06:30:01.699Z,6
2019-03-29T06:31:01.719Z,5
2019-03-29T06:32:02.054Z,5
2019-03-29T06:33:02.263Z,6
2019-03-29T06:34:01.513Z,5
2019-03-29T06:35:01.800Z,5
2019-03-29T06:36:01.916Z,5
2019-03-29T06:37:02.229Z,5
2019-03-29T06:38:01.545Z,4
2019-03-29T06:39:01.705Z,5
2019-03-29T06:40:01.946Z,5
2019-03-29T06:41:03.476Z,5
2019-03-29T06:42:02.443Z,5
2019-03-29T06:43:01.654Z,6
2019-03-29T06:44:01.867Z,6
2019-03-29T06:45:02.120Z,5
2019-03-29T06:46:02.301Z,6
2019-03-29T06:47:01.522Z,6
2019-03-29T06:48:01.846Z,6
2019-03-29T06:49:02.015Z,5
2019-03-29T06:50:02.233Z,5
2019-03-29T06:51:02.357Z,6
2019-03-29T06:52:01.541Z,7
2019-03-29T06:53:01.782Z,6
2019-03-29T06:54:02.033Z,5
2019-03-29T06:55:02.164Z,6
2019-03-29T06:56:02.357Z,5
2019-03-29T06:57:01.531Z,7
2019-03-29T06:58:01.799Z,9
2019-03-29T06:59:02.073Z,11
2019-03-29T07:00:03.572Z,10
2019-03-29T07:01:02.371Z,7
2019-03-29T07:02:01.540Z,6
2019-03-29T07:03:01.745Z,6
2019-03-29T07:04:02.038Z,6
2019-03-29T07:05:02.235Z,8
2019-03-29T07:06:01.459Z,6
2019-03-29T07:07:01.636Z,7
2019-03-29T07:08:01.920Z,8
2019-03-29T07:09:05.744Z,5
2019-03-29T07:10:02.370Z,6
2019-03-29T07:11:01.518Z,6
2019-03-29T07:12:01.728Z,6
2019-03-29T07:13:01.936Z,7
2019-03-29T07:14:02.134Z,8
2019-03-29T07:15:01.427Z,6
2019-03-29T07:16:01.612Z,5
2019-03-29T07:17:01.821Z,5
2019-03-29T07:18:01.986Z,5
2019-03-29T07:19:04.870Z,6
2019-03-29T07:20:02.334Z,5
2019-03-29T07:21:01.602Z,6
2019-03-29T07:22:01.738Z,6
2019-03-29T07:23:02.016Z,6
2019-03-29T07:24:02.341Z,6
2019-03-29T07:25:02.255Z,6
2019-03-29T07:26:01.426Z,6
2019-03-29T07:27:01.710Z,6
2019-03-29T07:28:01.909Z,7
2019-03-29T07:29:01.749Z,6
2019-03-29T07:30:02.099Z,6
2019-03-29T07:31:02.303Z,5
2019-03-29T07:32:01.546Z,7
2019-03-29T07:33:01.742Z,6
2019-03-29T07:34:01.923Z,6
2019-03-29T07:35:02.167Z,5
2019-03-29T07:36:02.397Z,6
2019-03-29T07:37:01.659Z,6
2019-03-29T07:38:01.873Z,7
2019-03-29T07:39:02.090Z,6
2019-03-29T07:40:02.385Z,6
2019-03-29T07:41:01.495Z,5
2019-03-29T07:42:01.706Z,7
2019-03-29T07:43:01.928Z,6
2019-03-29T07:44:01.985Z,7
2019-03-29T07:45:02.397Z,6
2019-03-29T07:46:01.599Z,5
2019-03-29T07:47:01.986Z,6
2019-03-29T07:48:02.086Z,6
2019-03-29T07:49:02.352Z,5
2019-03-29T07:50:01.686Z,4
2019-03-29T07:51:01.931Z,6
2019-03-29T07:52:02.129Z,5
2019-03-29T07:53:02.403Z,6
2019-03-29T07:54:01.609Z,5
2019-03-29T07:55:01.901Z,6
2019-03-29T07:56:02.132Z,7
2019-03-29T07:57:02.333Z,8
2019-03-29T07:58:01.560Z,4
2019-03-29T07:59:01.652Z,7
2019-03-29T08:00:04.155Z,7
2019-03-29T08:01:02.014Z,6
2019-03-29T08:02:02.486Z,5
2019-03-29T08:03:01.434Z,6
2019-03-29T08:04:01.587Z,7
2019-03-29T08:05:01.947Z,6
2019-03-29T08:06:02.097Z,7
2019-03-29T08:07:02.337Z,7
2019-03-29T08:08:01.635Z,5
2019-03-29T08:09:01.841Z,6
2019-03-29T08:10:04.069Z,6
2019-03-29T08:11:02.322Z,6
2019-03-29T08:12:01.459Z,7
2019-03-29T08:13:01.776Z,5
2019-03-29T08:14:01.931Z,6
2019-03-29T08:15:02.225Z,6
2019-03-29T08:16:02.430Z,8
2019-03-29T08:17:01.608Z,7
2019-03-29T08:18:02.074Z,7
2019-03-29T08:19:02.201Z,7
2019-03-29T08:20:36.633Z,6
2019-03-29T08:21:01.573Z,8
2019-03-29T08:22:01.821Z,7
2019-03-29T08:23:02.087Z,7
2019-03-29T08:24:02.371Z,7
2019-03-29T08:25:01.625Z,8
2019-03-29T08:26:01.890Z,7
2019-03-29T08:27:02.189Z,8
2019-03-29T08:28:02.359Z,6
2019-03-29T08:29:01.625Z,7
2019-03-29T08:30:01.784Z,8
2019-03-29T08:31:02.033Z,8
2019-03-29T08:32:02.171Z,8
2019-03-29T08:33:01.504Z,8
2019-03-29T08:34:01.611Z,8
2019-03-29T08:35:01.868Z,7
2019-03-29T08:36:02.151Z,7
2019-03-29T08:37:02.340Z,8
2019-03-29T08:38:01.502Z,7
2019-03-29T08:39:01.706Z,9
2019-03-29T08:40:01.959Z,8
2019-03-29T08:41:02.192Z,8
2019-03-29T08:42:02.358Z,8
2019-03-29T08:43:01.618Z,7
2019-03-29T08:44:01.967Z,8
2019-03-29T08:45:02.178Z,7
2019-03-29T08:46:02.341Z,9
2019-03-29T08:47:01.946Z,9
2019-03-29T08:48:02.467Z,8
2019-03-29T08:49:01.445Z,9
2019-03-29T08:50:01.751Z,7
2019-03-29T08:51:01.968Z,9
2019-03-29T08:52:02.218Z,8
2019-03-29T08:53:01.435Z,8
2019-03-29T08:54:01.633Z,9
2019-03-29T08:55:02.038Z,8
2019-03-29T08:56:02.177Z,8
2019-03-29T08:57:01.433Z,7
2019-03-29T08:58:01.579Z,7
2019-03-29T08:59:01.798Z,9
2019-03-29T09:00:03.941Z,10
2019-03-29T09:01:01.731Z,8
2019-03-29T09:02:01.900Z,8
2019-03-29T09:03:02.224Z,10
2019-03-29T09:04:05.600Z,10
2019-03-29T09:05:01.547Z,9
2019-03-29T09:06:01.773Z,8
2019-03-29T09:07:02.026Z,9
2019-03-29T09:08:02.263Z,10
2019-03-29T09:09:01.430Z,10
2019-03-29T09:10:01.694Z,9
2019-03-29T09:11:01.995Z,9
2019-03-29T09:12:13.672Z,8
2019-03-29T09:13:04.320Z,10
2019-03-29T09:14:01.627Z,11
2019-03-29T09:15:03.609Z,9
2019-03-29T09:16:02.162Z,10
2019-03-29T09:17:02.286Z,10
2019-03-29T09:18:01.519Z,10
2019-03-29T09:19:01.769Z,9
2019-03-29T09:20:02.150Z,10
2019-03-29T09:21:02.255Z,9
2019-03-29T09:22:01.495Z,10
2019-03-29T09:23:01.673Z,9
2019-03-29T09:24:01.991Z,11
2019-03-29T09:25:02.277Z,10
2019-03-29T09:26:01.517Z,8
2019-03-29T09:27:01.726Z,10
2019-03-29T09:28:01.804Z,10
2019-03-29T09:29:01.998Z,8
2019-03-29T09:30:05.002Z,10
2019-03-29T09:31:01.475Z,9
2019-03-29T09:32:01.625Z,9
2019-03-29T09:33:01.842Z,9
2019-03-29T09:34:02.089Z,11
2019-03-29T09:35:02.380Z,11
2019-03-29T09:36:04.794Z,12
2019-03-29T09:37:01.823Z,9
2019-03-29T09:38:01.999Z,11
2019-03-29T09:39:02.237Z,11
2019-03-29T09:40:01.463Z,11
2019-03-29T09:41:01.688Z,11
2019-03-29T09:42:01.981Z,8
2019-03-29T09:43:07.810Z,11
2019-03-29T09:44:01.399Z,10
2019-03-29T09:45:01.737Z,12
2019-03-29T09:46:03.498Z,10
2019-03-29T09:47:02.117Z,11
2019-03-29T09:48:02.248Z,13
2019-03-29T09:49:01.518Z,11
2019-03-29T09:50:01.915Z,10
2019-03-29T09:51:02.102Z,11
2019-03-29T09:52:02.239Z,11
2019-03-29T09:53:01.753Z,11
2019-03-29T09:54:01.732Z,12
2019-03-29T09:55:02.372Z,9
2019-03-29T09:56:01.633Z,10
2019-03-29T09:57:01.850Z,12
2019-03-29T09:58:02.056Z,11
2019-03-29T09:59:02.326Z,12
2019-03-29T10:00:17.403Z,10
2019-03-29T10:01:02.133Z,12
2019-03-29T10:02:01.518Z,10
2019-03-29T10:03:01.711Z,13
2019-03-29T10:04:01.971Z,11
2019-03-29T10:05:02.195Z,11
2019-03-29T10:06:01.523Z,10
2019-03-29T10:07:01.729Z,11
2019-03-29T10:08:01.947Z,11
2019-03-29T10:09:02.124Z,12
2019-03-29T10:10:02.329Z,12
2019-03-29T10:11:01.601Z,12
2019-03-29T10:12:01.781Z,10
2019-03-29T10:13:02.015Z,12
2019-03-29T10:14:02.203Z,10
2019-03-29T10:15:01.544Z,11
2019-03-29T10:16:01.656Z,11
2019-03-29T10:17:01.916Z,10
2019-03-29T10:18:02.109Z,10
2019-03-29T10:19:02.370Z,9
2019-03-29T10:20:01.570Z,11
2019-03-29T10:21:01.702Z,10
2019-03-29T10:22:01.910Z,11
2019-03-29T10:23:02.164Z,10
2019-03-29T10:24:02.334Z,10
2019-03-29T10:25:02.537Z,11
2019-03-29T10:26:01.895Z,11
2019-03-29T10:27:02.098Z,9
2019-03-29T10:28:02.311Z,10
2019-03-29T10:29:01.522Z,10
2019-03-29T10:30:01.812Z,10
2019-03-29T10:31:02.054Z,9
2019-03-29T10:32:05.470Z,10
2019-03-29T10:33:01.540Z,11
2019-03-29T10:34:01.695Z,12
2019-03-29T10:35:01.991Z,9
2019-03-29T10:36:02.158Z,13
2019-03-29T10:37:01.472Z,10
2019-03-29T10:38:01.636Z,10
2019-03-29T10:39:01.900Z,10
2019-03-29T10:40:02.187Z,12
2019-03-29T10:41:02.314Z,12
2019-03-29T10:42:01.534Z,12
2019-03-29T10:43:01.903Z,10
2019-03-29T10:44:02.039Z,10
2019-03-29T10:45:02.369Z,11
2019-03-29T10:46:01.482Z,12
2019-03-29T10:47:01.690Z,11
2019-03-29T10:48:01.963Z,12
2019-03-29T10:49:02.092Z,11
2019-03-29T10:50:02.414Z,11
2019-03-29T10:51:01.640Z,11
2019-03-29T10:52:01.899Z,11
2019-03-29T10:53:02.090Z,10
2019-03-29T10:54:02.356Z,10
2019-03-29T10:55:01.591Z,10
2019-03-29T10:56:01.956Z,11
2019-03-29T10:57:02.093Z,11
2019-03-29T10:58:02.345Z,10
2019-03-29T10:59:01.506Z,11
2019-03-29T11:00:04.878Z,11
2019-03-29T11:01:01.754Z,11
2019-03-29T11:02:01.913Z,11
2019-03-29T11:03:02.181Z,10
2019-03-29T11:04:02.402Z,10
2019-03-29T11:05:01.802Z,10
2019-03-29T11:06:01.928Z,11
2019-03-29T11:07:02.056Z,9
2019-03-29T11:08:02.260Z,10
2019-03-29T11:09:01.546Z,11
2019-03-29T11:10:01.724Z,10
2019-03-29T11:11:02.004Z,11
2019-03-29T11:12:02.172Z,10
2019-03-29T11:13:12.759Z,9
2019-03-29T11:14:01.707Z,11
2019-03-29T11:15:01.946Z,10
2019-03-29T11:16:02.276Z,10
2019-03-29T11:17:02.403Z,10
2019-03-29T11:18:01.651Z,10
2019-03-29T11:19:01.917Z,9
2019-03-29T11:20:02.187Z,11
2019-03-29T11:21:01.415Z,9
2019-03-29T11:22:01.624Z,9
2019-03-29T11:23:01.806Z,10
2019-03-29T11:24:02.056Z,10
2019-03-29T11:25:02.361Z,11
2019-03-29T11:26:01.575Z,11
2019-03-29T11:27:01.807Z,11
2019-03-29T11:28:02.069Z,10
2019-03-29T11:29:02.351Z,11
2019-03-29T11:30:01.714Z,10
2019-03-29T11:31:01.699Z,9
2019-03-29T11:32:01.962Z,10
2019-03-29T11:33:02.170Z,10
2019-03-29T11:34:02.377Z,10
2019-03-29T11:35:01.710Z,10
2019-03-29T11:36:01.847Z,10
2019-03-29T11:37:02.077Z,9
2019-03-29T11:38:02.284Z,10
2019-03-29T11:39:01.522Z,8
2019-03-29T11:40:02.083Z,10
2019-03-29T11:41:01.954Z,10
2019-03-29T11:42:03.677Z,9
2019-03-29T11:43:02.420Z,11
2019-03-29T11:44:01.588Z,10
2019-03-29T11:45:01.833Z,11
2019-03-29T11:46:02.082Z,11
2019-03-29T11:47:02.225Z,10
2019-03-29T11:48:08.479Z,10
2019-03-29T11:49:06.388Z,10
2019-03-29T11:50:02.087Z,11
2019-03-29T11:51:02.352Z,10
2019-03-29T11:52:01.649Z,10
2019-03-29T11:53:01.793Z,12
2019-03-29T11:54:02.014Z,10
2019-03-29T11:55:02.326Z,10
2019-03-29T11:56:01.470Z,9
2019-03-29T11:57:01.761Z,12
2019-03-29T11:58:01.929Z,9
2019-03-29T11:59:02.125Z,10
2019-03-29T12:00:04.909Z,10
2019-03-29T12:01:01.796Z,11
2019-03-29T12:02:02.032Z,10
2019-03-29T12:03:02.221Z,10
2019-03-29T12:04:01.487Z,10
2019-03-29T12:05:01.752Z,9
2019-03-29T12:06:01.917Z,8
2019-03-29T12:07:03.687Z,9
2019-03-29T12:08:02.302Z,10
2019-03-29T12:09:01.522Z,10
2019-03-29T12:10:01.751Z,11
2019-03-29T12:11:01.965Z,10
2019-03-29T12:12:02.206Z,11
2019-03-29T12:13:01.486Z,10
2019-03-29T12:14:04.865Z,12
2019-03-29T12:15:02.012Z,9
2019-03-29T12:16:02.184Z,11
2019-03-29T12:17:02.477Z,10
2019-03-29T12:18:01.612Z,9
2019-03-29T12:19:01.876Z,11
2019-03-29T12:20:02.425Z,8
2019-03-29T12:21:01.402Z,8
2019-03-29T12:22:01.726Z,12
2019-03-29T12:23:02.019Z,11
2019-03-29T12:24:02.292Z,11
2019-03-29T12:25:01.558Z,10
2019-03-29T12:26:01.779Z,10
2019-03-29T12:27:01.987Z,11
2019-03-29T12:28:02.274Z,9
2019-03-29T12:29:01.452Z,9
2019-03-29T12:30:02.024Z,10
2019-03-29T12:31:02.037Z,11
2019-03-29T12:32:02.179Z,10
2019-03-29T12:33:01.501Z,9
2019-03-29T12:34:01.584Z,9
2019-03-29T12:35:01.866Z,10
2019-03-29T12:36:02.161Z,10
2019-03-29T12:37:02.335Z,10
2019-03-29T12:38:01.447Z,10
2019-03-29T12:39:01.674Z,10
2019-03-29T12:40:01.898Z,9
2019-03-29T12:41:02.102Z,8
2019-03-29T12:42:02.347Z,10
2019-03-29T12:43:01.460Z,10
2019-03-29T12:44:01.708Z,9
2019-03-29T12:45:02.002Z,11
2019-03-29T12:46:02.252Z,10
2019-03-29T12:47:01.466Z,9
2019-03-29T12:48:01.692Z,11
2019-03-29T12:49:01.874Z,10
2019-03-29T12:50:02.165Z,11
2019-03-29T12:51:01.489Z,9
2019-03-29T12:52:01.650Z,11
2019-03-29T12:53:01.969Z,11
2019-03-29T12:54:02.162Z,10
2019-03-29T12:55:02.457Z,9
2019-03-29T12:56:02.093Z,11
2019-03-29T12:57:02.326Z,10
2019-03-29T12:58:01.549Z,9
2019-03-29T12:59:01.855Z,9
2019-03-29T13:00:04.024Z,10
2019-03-29T13:01:01.844Z,11
2019-03-29T13:02:02.126Z,9
2019-03-29T13:03:02.301Z,11
2019-03-29T13:04:01.599Z,11
2019-03-29T13:05:01.854Z,10
2019-03-29T13:06:02.072Z,9
2019-03-29T13:07:02.291Z,11
2019-03-29T13:08:01.484Z,10
2019-03-29T13:09:01.692Z,9
2019-03-29T13:10:01.966Z,11
2019-03-29T13:11:02.152Z,9
2019-03-29T13:12:02.267Z,10
2019-03-29T13:13:01.556Z,11
2019-03-29T13:14:10.186Z,9
2019-03-29T13:15:01.947Z,10
2019-03-29T13:16:02.176Z,10
2019-03-29T13:17:03.002Z,10
2019-03-29T13:18:01.606Z,10
2019-03-29T13:19:01.766Z,11
2019-03-29T13:20:02.068Z,11
2019-03-29T13:21:02.194Z,10
2019-03-29T13:22:01.437Z,10
2019-03-29T13:23:01.682Z,10
2019-03-29T13:24:02.004Z,11
2019-03-29T13:25:02.190Z,11
2019-03-29T13:26:01.518Z,11
2019-03-29T13:27:01.654Z,11
2019-03-29T13:28:01.944Z,11
2019-03-29T13:29:02.147Z,11
2019-03-29T13:30:02.379Z,10
2019-03-29T13:31:01.597Z,10
2019-03-29T13:32:01.786Z,10
2019-03-29T13:33:02.056Z,9
2019-03-29T13:34:02.328Z,9
2019-03-29T13:35:01.488Z,9
2019-03-29T13:36:01.756Z,11
2019-03-29T13:37:01.952Z,11
2019-03-29T13:38:02.106Z,10
2019-03-29T13:39:02.335Z,11
2019-03-29T13:40:01.629Z,10
2019-03-29T13:41:01.968Z,11
2019-03-29T13:42:02.170Z,11
2019-03-29T13:43:02.333Z,10
2019-03-29T13:44:01.618Z,12
2019-03-29T13:45:01.929Z,11
2019-03-29T13:46:02.133Z,11
2019-03-29T13:47:01.402Z,11
2019-03-29T13:48:01.672Z,11
2019-03-29T13:49:01.789Z,10
2019-03-29T13:50:02.220Z,9
2019-03-29T13:51:02.362Z,9
2019-03-29T13:52:01.658Z,11
2019-03-29T13:53:01.904Z,12
2019-03-29T13:54:02.155Z,10
2019-03-29T13:55:01.624Z,9
2019-03-29T13:56:01.828Z,9
2019-03-29T13:57:02.275Z,10
2019-03-29T13:58:01.445Z,11
2019-03-29T13:59:01.729Z,10
2019-03-29T14:00:03.743Z,10
2019-03-29T14:01:01.578Z,12
2019-03-29T14:02:01.851Z,10
2019-03-29T14:03:01.964Z,12
2019-03-29T14:04:01.420Z,9
2019-03-29T14:05:01.714Z,11
2019-03-29T14:06:01.949Z,9
2019-03-29T14:07:02.135Z,11
2019-03-29T14:08:02.377Z,10
2019-03-29T14:09:01.554Z,10
2019-03-29T14:10:01.893Z,9
2019-03-29T14:11:02.113Z,11
2019-03-29T14:12:02.260Z,10
2019-03-29T14:13:01.477Z,10
2019-03-29T14:14:01.758Z,10
2019-03-29T14:15:02.095Z,12
2019-03-29T14:16:02.252Z,11
2019-03-29T14:17:01.536Z,11
2019-03-29T14:18:01.699Z,13
2019-03-29T14:19:01.971Z,10
2019-03-29T14:20:02.186Z,10
2019-03-29T14:21:01.405Z,10
2019-03-29T14:22:01.613Z,9
2019-03-29T14:23:01.794Z,9
2019-03-29T14:24:02.081Z,8
2019-03-29T14:25:02.283Z,11
2019-03-29T14:26:01.478Z,11
2019-03-29T14:27:01.662Z,10
2019-03-29T14:28:01.927Z,11
2019-03-29T14:29:02.327Z,10
2019-03-29T14:30:04.755Z,10
2019-03-29T14:31:01.792Z,11
2019-03-29T14:32:02.090Z,10
2019-03-29T14:33:02.187Z,9
2019-03-29T14:34:02.376Z,11
2019-03-29T14:35:01.781Z,12
2019-03-29T14:36:01.949Z,10
2019-03-29T14:37:02.266Z,12